createdAt,value
2018-03-19T00:02:48.316Z,93887.86
2018-03-19T00:05:51.606Z,93888.07
2018-03-19T00:08:54.912Z,93890.72
2018-03-19T00:11:58.216Z,93891.69
2018-03-19T00:15:01.566Z,93896.21
2018-03-19T00:18:05.692Z,93892.80
2018-03-19T00:21:25.432Z,93890.02
2018-03-19T00:24:29.638Z,93887.72
2018-03-19T00:27:33.094Z,93891.34
2018-03-19T00:30:37.143Z,93887.34
2018-03-19T00:33:41.196Z,93891.38
2018-03-19T00:36:44.628Z,93891.50
2018-03-19T00:39:48.668Z,93890.68
2018-03-19T00:42:51.941Z,93885.09
2018-03-19T00:45:55.985Z,93887.13
2018-03-19T00:48:59.256Z,93885.00
2018-03-19T00:52:02.539Z,93882.97
2018-03-19T00:55:06.577Z,93881.44
2018-03-19T00:58:09.894Z,93885.98
2018-03-19T01:01:17.381Z,93882.69
2018-03-19T01:04:20.679Z,93889.06
2018-03-19T01:07:24.108Z,93883.31
2018-03-19T01:10:27.558Z,93883.03
2018-03-19T01:13:30.881Z,93887.44
2018-03-19T01:16:34.161Z,93888.99
2018-03-19T01:19:37.724Z,93882.47
2018-03-19T01:22:41.013Z,93882.16
2018-03-19T01:25:44.379Z,93879.56
2018-03-19T01:28:47.679Z,93875.11
2018-03-19T01:31:51.059Z,93871.99
2018-03-19T01:34:54.323Z,93882.64
2018-03-19T01:37:57.725Z,93885.96
2018-03-19T01:41:01.018Z,93886.41
2018-03-19T01:44:05.482Z,93877.40
2018-03-19T01:47:08.761Z,93881.98
2018-03-19T01:50:12.799Z,93888.95
2018-03-19T01:53:19.326Z,93881.60
2018-03-19T01:56:22.591Z,93884.89
2018-03-19T01:59:26.133Z,93887.83
2018-03-19T02:02:30.199Z,93886.48
2018-03-19T02:05:33.473Z,93885.70
2018-03-19T02:08:36.757Z,93885.66
2018-03-19T02:11:40.797Z,93879.80
2018-03-19T02:14:44.092Z,93880.52
2018-03-19T02:17:47.404Z,93878.17
2018-03-19T02:20:50.784Z,93878.23
2018-03-19T02:23:54.130Z,93875.45
2018-03-19T02:26:57.413Z,93877.98
2018-03-19T02:30:00.695Z,93875.39
2018-03-19T02:33:04.086Z,93881.94
2018-03-19T02:36:07.350Z,93872.19
2018-03-19T02:39:11.405Z,93877.89
2018-03-19T02:42:14.920Z,93876.66
2018-03-19T02:45:18.193Z,93880.00
2018-03-19T02:48:21.524Z,93877.02
2018-03-19T02:51:24.876Z,93872.40
2018-03-19T02:54:29.125Z,93871.70
2018-03-19T02:57:32.413Z,93883.63
2018-03-19T03:00:35.725Z,93875.59
2018-03-19T03:03:38.989Z,93880.61
2018-03-19T03:06:42.270Z,93879.58
2018-03-19T03:09:46.421Z,93876.66
2018-03-19T03:12:49.714Z,93875.55
2018-03-19T03:15:53.033Z,93871.56
2018-03-19T03:18:56.314Z,93879.45
2018-03-19T03:21:59.674Z,93877.76
2018-03-19T03:25:03.815Z,93879.89
2018-03-19T03:28:07.099Z,93885.49
2018-03-19T03:31:11.130Z,93883.52
2018-03-19T03:34:14.403Z,93887.64
2018-03-19T03:37:18.457Z,93888.39
2018-03-19T03:40:21.722Z,93889.25
2018-03-19T03:43:25.849Z,93891.45
2018-03-19T03:46:29.146Z,93885.53
2018-03-19T03:49:33.262Z,93886.59
2018-03-19T03:52:36.571Z,93888.27
2018-03-19T03:55:39.937Z,93890.31
2018-03-19T03:58:43.259Z,93893.18
2018-03-19T04:01:46.970Z,93893.04
2018-03-19T04:04:50.272Z,93892.80
2018-03-19T04:07:53.596Z,93892.02
2018-03-19T04:10:56.868Z,93893.58
2018-03-19T04:14:00.163Z,93883.47
2018-03-19T04:17:03.446Z,93894.76
2018-03-19T04:20:07.577Z,93892.50
2018-03-19T04:23:10.864Z,93894.09
2018-03-19T04:26:14.144Z,93891.11
2018-03-19T04:29:17.470Z,93892.15
2018-03-19T04:32:20.771Z,93897.72
2018-03-19T04:35:24.047Z,93896.16
2018-03-19T04:38:28.094Z,93895.00
2018-03-19T04:41:50.394Z,93894.84
2018-03-19T04:44:55.887Z,93889.04
2018-03-19T04:47:59.168Z,93889.66
2018-03-19T04:51:02.442Z,93897.70
2018-03-19T04:54:06.484Z,93890.31
2018-03-19T04:57:09.796Z,93897.31
2018-03-19T05:00:13.278Z,93904.16
2018-03-19T05:03:16.678Z,93898.73
2018-03-19T05:06:20.180Z,93898.13
2018-03-19T05:09:23.579Z,93894.49
2018-03-19T05:12:41.193Z,93897.73
2018-03-19T05:15:44.596Z,93904.73
2018-03-19T05:18:48.676Z,93901.63
2018-03-19T05:21:51.953Z,93905.14
2018-03-19T05:24:56.606Z,93909.55
2018-03-19T05:28:27.005Z,93914.48
2018-03-19T05:31:45.870Z,93916.16
2018-03-19T05:34:50.288Z,93916.82
2018-03-19T05:37:53.976Z,93922.91
2018-03-19T05:40:57.311Z,93922.50
2018-03-19T05:44:00.677Z,93927.14
2018-03-19T05:47:04.358Z,93927.75
2018-03-19T05:50:08.195Z,93933.48
2018-03-19T05:53:11.478Z,93936.05
2018-03-19T05:56:15.533Z,93935.55
2018-03-19T05:59:18.919Z,93940.38
2018-03-19T06:02:22.411Z,93938.44
2018-03-19T06:05:26.448Z,93947.23
2018-03-19T06:08:29.737Z,93953.08
2018-03-19T06:11:34.618Z,93950.77
2018-03-19T06:14:37.887Z,93951.66
2018-03-19T06:17:41.178Z,93956.58
2018-03-19T06:20:44.460Z,93954.77
2018-03-19T06:23:47.754Z,93954.24
2018-03-19T06:26:51.017Z,93955.14
2018-03-19T06:29:54.328Z,93956.68
2018-03-19T06:32:57.600Z,93963.04
2018-03-19T06:36:00.949Z,93956.29
2018-03-19T06:39:04.227Z,93960.07
2018-03-19T06:42:08.281Z,93967.83
2018-03-19T06:45:11.618Z,93964.16
2018-03-19T06:48:15.656Z,93964.89
2018-03-19T06:51:19.701Z,93965.45
2018-03-19T06:54:23.094Z,93976.86
2018-03-19T06:57:26.429Z,93971.14
2018-03-19T07:00:29.818Z,93976.94
2018-03-19T07:03:34.397Z,93968.45
2018-03-19T07:06:38.530Z,93972.36
2018-03-19T07:09:42.662Z,93978.28
2018-03-19T07:12:46.185Z,93983.23
2018-03-19T07:15:49.553Z,93988.25
2018-03-19T07:18:52.860Z,93989.94
2018-03-19T07:21:56.147Z,93996.23
2018-03-19T07:25:00.241Z,93992.19
2018-03-19T07:28:03.563Z,93994.14
2018-03-19T07:31:07.797Z,93989.69
2018-03-19T07:34:11.076Z,93991.72
2018-03-19T07:37:15.109Z,93993.64
2018-03-19T07:40:18.510Z,93995.44
2018-03-19T07:43:21.864Z,94008.76
2018-03-19T07:46:25.902Z,94004.87
2018-03-19T07:49:29.962Z,94006.41
2018-03-19T07:52:33.229Z,94007.98
2018-03-19T07:55:36.504Z,94014.44
2018-03-19T07:58:40.544Z,94014.34
2018-03-19T08:01:43.819Z,94011.72
2018-03-19T08:04:47.897Z,94011.05
2018-03-19T08:07:51.181Z,94017.72
2018-03-19T08:10:54.450Z,94007.79
2018-03-19T08:13:57.735Z,94008.43
2018-03-19T08:17:01.009Z,94009.64
2018-03-19T08:20:05.042Z,94011.63
2018-03-19T08:23:09.566Z,94012.71
2018-03-19T08:26:13.830Z,94014.17
2018-03-19T08:29:17.112Z,94008.05
2018-03-19T08:32:20.377Z,94012.45
2018-03-19T08:35:24.417Z,94009.14
2018-03-19T08:38:27.700Z,94013.75
2018-03-19T08:41:31.734Z,94013.63
2018-03-19T08:44:35.010Z,94012.71
2018-03-19T08:47:38.603Z,94006.67
2018-03-19T08:50:42.660Z,94005.20
2018-03-19T08:53:46.313Z,94002.11
2018-03-19T08:56:50.352Z,94008.02
2018-03-19T08:59:53.647Z,94005.89
2018-03-19T09:02:57.690Z,94003.97
2018-03-19T09:06:00.974Z,94005.73
2018-03-19T09:09:04.245Z,94004.09
2018-03-19T09:12:08.269Z,94017.98
2018-03-19T09:15:12.305Z,94008.23
2018-03-19T09:18:15.590Z,94010.10
2018-03-19T09:21:19.634Z,94016.26
2018-03-19T09:24:23.012Z,94015.73
2018-03-19T09:27:26.308Z,94018.41
2018-03-19T09:30:29.594Z,94014.34
2018-03-19T09:33:32.911Z,94023.34
2018-03-19T09:36:36.205Z,94018.89
2018-03-19T09:39:40.319Z,94025.56
2018-03-19T09:42:43.604Z,94022.27
2018-03-19T09:45:47.312Z,94027.03
2018-03-19T09:48:50.590Z,94029.89
2018-03-19T09:51:54.865Z,94029.19
2018-03-19T09:54:58.170Z,94034.09
2018-03-19T09:58:01.693Z,94035.35
2018-03-19T10:01:05.307Z,94044.44
2018-03-19T10:04:09.621Z,94045.13
2018-03-19T10:07:13.229Z,94045.23
2018-03-19T10:10:17.461Z,94038.47
2018-03-19T10:13:21.820Z,94038.89
2018-03-19T10:16:25.492Z,94036.86
2018-03-19T10:19:29.530Z,94036.82
2018-03-19T10:22:32.796Z,94037.05
2018-03-19T10:25:36.076Z,94032.55
2018-03-19T10:28:39.353Z,94036.12
2018-03-19T10:31:42.750Z,94038.58
2018-03-19T10:34:46.061Z,94035.73
2018-03-19T10:37:49.334Z,94039.17
2018-03-19T10:40:52.715Z,94034.88
2018-03-19T10:43:56.756Z,94038.58
2018-03-19T10:47:00.026Z,94037.77
2018-03-19T10:50:03.403Z,94028.91
2018-03-19T10:53:06.762Z,94031.44
2018-03-19T10:56:10.055Z,94037.89
2018-03-19T10:59:13.334Z,94038.08
2018-03-19T11:05:56.523Z,94034.52
2018-03-19T11:09:05.273Z,94024.75
2018-03-19T11:12:08.652Z,94024.24
2018-03-19T11:15:12.630Z,94031.50
2018-03-19T11:18:15.962Z,94031.90
2018-03-19T11:21:19.245Z,94028.23
2018-03-19T11:24:22.525Z,94022.53
2018-03-19T11:27:25.795Z,94023.63
2018-03-19T11:30:29.841Z,94026.39
2018-03-19T11:33:33.333Z,94021.73
2018-03-19T11:36:36.636Z,94032.73
2018-03-19T11:39:40.187Z,94027.95
2018-03-19T11:42:43.518Z,94025.46
2018-03-19T11:45:47.847Z,94021.30
2018-03-19T11:48:51.129Z,94017.30
2018-03-19T11:51:55.165Z,94019.15
2018-03-19T11:54:58.546Z,94012.59
2018-03-19T11:58:02.594Z,94019.09
2018-03-19T12:01:06.794Z,94016.65
2018-03-19T12:04:10.362Z,94023.17
2018-03-19T12:07:13.688Z,94023.84
2018-03-19T12:10:17.724Z,94024.05
2018-03-19T12:13:20.991Z,94018.88
2018-03-19T12:16:25.035Z,94020.59
2018-03-19T12:19:29.725Z,94020.50
2018-03-19T12:22:33.789Z,94009.56
2018-03-19T12:25:37.071Z,94007.86
2018-03-19T12:28:40.345Z,94005.09
2018-03-19T12:31:44.388Z,94003.37
2018-03-19T12:34:47.713Z,93997.45
2018-03-19T12:37:51.053Z,94010.53
2018-03-19T12:40:55.129Z,94009.13
2018-03-19T12:43:59.494Z,94021.09
2018-03-19T12:47:03.524Z,94012.88
2018-03-19T12:50:07.089Z,94010.06
2018-03-19T12:53:10.378Z,94012.58
2018-03-19T12:56:13.889Z,94010.63
2018-03-19T12:59:17.944Z,94011.97
2018-03-19T13:02:21.230Z,94010.37
2018-03-19T13:05:25.278Z,94011.81
2018-03-19T13:08:28.820Z,94015.48
2018-03-19T13:11:32.268Z,94015.03
2018-03-19T13:14:35.569Z,94018.12
2018-03-19T13:17:39.436Z,94022.16
2018-03-19T13:20:43.175Z,94021.72
2018-03-19T13:23:46.445Z,94020.47
2018-03-19T13:26:50.540Z,94023.50
2018-03-19T13:29:54.049Z,94018.22
2018-03-19T13:32:57.328Z,94008.64
2018-03-19T13:36:00.618Z,94018.48
2018-03-19T13:39:03.897Z,94023.77
2018-03-19T13:42:07.281Z,94029.22
2018-03-19T13:45:11.329Z,94031.76
2018-03-19T13:48:14.872Z,94025.14
2018-03-19T13:51:18.142Z,94027.86
2018-03-19T13:54:22.414Z,94029.73
2018-03-19T13:57:26.464Z,94025.36
2018-03-19T14:00:29.770Z,94023.56
2018-03-19T14:03:33.337Z,94028.03
2018-03-19T14:06:36.611Z,94028.79
2018-03-19T14:09:40.649Z,94030.67
2018-03-19T14:12:45.687Z,94032.91
2018-03-19T14:15:50.502Z,94030.59
2018-03-19T14:18:54.555Z,94027.00
2018-03-19T14:21:57.836Z,94025.00
2018-03-19T14:25:01.105Z,94023.00
2018-03-19T14:28:04.438Z,94033.00
2018-03-19T14:31:07.676Z,94021.88
2018-03-19T14:34:11.012Z,94038.66
2018-03-19T14:37:14.326Z,94038.73
2018-03-19T14:40:17.614Z,94037.14
2018-03-19T14:43:21.768Z,94034.73
2018-03-19T14:46:25.047Z,94039.55
2018-03-19T14:49:29.174Z,94036.27
2018-03-19T14:52:32.457Z,94040.90
2018-03-19T14:55:36.532Z,94042.56
2018-03-19T14:58:39.803Z,94044.61
2018-03-19T15:01:43.088Z,94036.81
2018-03-19T15:04:46.368Z,94041.25
2018-03-19T15:07:49.667Z,94039.00
2018-03-19T15:10:53.767Z,94043.64
2018-03-19T15:13:57.832Z,94045.18
2018-03-19T15:17:01.113Z,94047.87
2018-03-19T15:20:04.441Z,94046.23
2018-03-19T15:23:07.813Z,94045.39
2018-03-19T15:26:11.112Z,94047.48
2018-03-19T15:29:14.413Z,94049.78
2018-03-19T15:32:17.715Z,94049.59
2018-03-19T15:35:20.992Z,94060.58
2018-03-19T15:38:24.365Z,94050.30
2018-03-19T15:41:27.685Z,94057.85
2018-03-19T15:44:31.818Z,94055.14
2018-03-19T15:47:35.101Z,94056.25
2018-03-19T15:50:39.834Z,94059.47
2018-03-19T15:53:43.140Z,94059.98
2018-03-19T15:56:46.439Z,94064.23
2018-03-19T15:59:49.734Z,94064.28
2018-03-19T16:02:53.034Z,94066.33
2018-03-19T16:05:56.318Z,94064.19
2018-03-19T16:09:00.357Z,94076.41
2018-03-19T16:12:03.682Z,94070.13
2018-03-19T16:15:06.945Z,94083.48
2018-03-19T16:18:10.233Z,94074.64
2018-03-19T16:21:13.736Z,94076.98
2018-03-19T16:24:17.242Z,94081.66
2018-03-19T16:27:23.174Z,94087.63
2018-03-19T16:30:48.763Z,94097.84
2018-03-19T16:33:54.563Z,94094.33
2018-03-19T16:36:59.066Z,94090.66
2018-03-19T16:40:02.331Z,94093.36
2018-03-19T16:43:05.634Z,94095.73
2018-03-19T16:46:08.912Z,94094.91
2018-03-19T16:49:12.289Z,94102.71
2018-03-19T16:52:15.622Z,94100.38
2018-03-19T16:55:18.984Z,94104.41
2018-03-19T16:58:22.794Z,94101.89
2018-03-19T17:01:26.101Z,94104.88
2018-03-19T17:04:29.401Z,94110.09
2018-03-19T17:07:33.434Z,94112.12
2018-03-19T17:10:36.724Z,94114.44
2018-03-19T17:13:40.326Z,94118.34
2018-03-19T17:16:43.623Z,94118.44
2018-03-19T17:19:47.259Z,94127.36
2018-03-19T17:22:50.767Z,94122.42
2018-03-19T17:25:54.219Z,94123.55
2018-03-19T17:28:57.577Z,94132.79
2018-03-19T17:32:00.867Z,94133.02
2018-03-19T17:35:04.156Z,94141.49
2018-03-19T17:38:07.438Z,94145.68
2018-03-19T17:41:10.868Z,94143.31
2018-03-19T17:44:14.165Z,94147.58
2018-03-19T17:47:17.459Z,94150.59
2018-03-19T17:50:20.762Z,94155.11
2018-03-19T17:53:24.150Z,94158.62
2018-03-19T17:56:27.538Z,94158.44
2018-03-19T17:59:30.849Z,94162.80
2018-03-19T18:02:34.149Z,94172.61
2018-03-19T18:05:37.558Z,94172.20
2018-03-19T18:08:40.875Z,94184.04
2018-03-19T18:11:44.144Z,94187.40
2018-03-19T18:14:47.540Z,94182.39
2018-03-19T18:17:51.188Z,94188.22
2018-03-19T18:20:54.645Z,94192.11
2018-03-19T18:23:58.325Z,94196.24
2018-03-19T18:27:01.657Z,94202.63
2018-03-19T18:30:05.222Z,94199.77
2018-03-19T18:33:08.637Z,94204.83
2018-03-19T18:36:13.168Z,94201.48
2018-03-19T18:39:16.665Z,94205.38
2018-03-19T18:42:19.968Z,94206.43
2018-03-19T18:45:23.414Z,94214.07
2018-03-19T18:48:26.654Z,94213.16
2018-03-19T18:51:30.697Z,94214.73
2018-03-19T18:54:33.981Z,94220.19
2018-03-19T18:57:37.295Z,94216.52
2018-03-19T19:00:40.574Z,94225.73
2018-03-19T19:03:43.884Z,94223.67
2018-03-19T19:06:47.194Z,94220.69
2018-03-19T19:09:51.146Z,94224.85
2018-03-19T19:12:54.442Z,94228.09
2018-03-19T19:15:57.741Z,94229.77
2018-03-19T19:19:01.217Z,94229.63
2018-03-19T19:22:05.400Z,94226.53
2018-03-19T19:25:14.502Z,94228.20
2018-03-19T19:28:18.734Z,94228.36
2018-03-19T19:31:22.009Z,94230.31
2018-03-19T19:34:26.856Z,94233.53
2018-03-19T19:37:30.913Z,94236.28
2018-03-19T19:40:35.591Z,94236.78
2018-03-19T19:43:39.232Z,94238.09
2018-03-19T19:46:44.623Z,94236.14
2018-03-19T19:49:48.071Z,94233.53
2018-03-19T19:52:51.726Z,94243.41
2018-03-19T19:55:55.511Z,94245.50
2018-03-19T19:58:59.101Z,94247.95
2018-03-19T20:02:03.136Z,94250.03
2018-03-19T20:05:06.488Z,94250.04
2018-03-19T20:08:09.962Z,94251.45
2018-03-19T20:11:13.742Z,94248.36
2018-03-19T20:14:17.362Z,94249.11
2018-03-19T20:17:20.815Z,94250.05
2018-03-19T20:20:24.943Z,94253.41
2018-03-19T20:23:29.557Z,94247.69
2018-03-19T20:26:32.987Z,94256.38
2018-03-19T20:29:36.520Z,94257.42
2018-03-19T20:32:40.190Z,94262.36
2018-03-19T20:35:44.783Z,94253.94
2018-03-19T20:38:53.275Z,94249.91
2018-03-19T20:41:56.653Z,94249.23
2018-03-19T20:45:01.511Z,94246.27
2018-03-19T20:48:04.911Z,94247.95
2018-03-19T20:51:08.545Z,94243.92
2018-03-19T20:54:22.109Z,94242.11
2018-03-19T20:57:32.281Z,94242.22
2018-03-19T21:00:40.523Z,94247.16
2018-03-19T21:03:45.606Z,94244.05
2018-03-19T21:06:51.006Z,94249.34
2018-03-19T21:09:55.125Z,94253.14
2018-03-19T21:13:03.165Z,94250.41
2018-03-19T21:16:10.893Z,94251.71
2018-03-19T21:19:14.238Z,94250.42
2018-03-19T21:22:18.583Z,94258.58
2018-03-19T21:25:23.364Z,94253.65
2018-03-19T21:28:27.633Z,94250.80
2018-03-19T21:31:32.154Z,94247.81
2018-03-19T21:34:35.529Z,94250.95
2018-03-19T21:37:39.873Z,94250.03
2018-03-19T21:40:43.345Z,94250.95
2018-03-19T21:43:46.745Z,94254.83
2018-03-19T21:46:50.146Z,94253.66
2018-03-19T21:49:54.263Z,94243.94
2018-03-19T21:52:57.694Z,94246.77
2018-03-19T21:56:02.223Z,94247.05
2018-03-19T21:59:09.940Z,94246.67
2018-03-19T22:02:13.234Z,94242.24
2018-03-19T22:05:16.562Z,94241.08
2018-03-19T22:08:21.225Z,94249.64
2018-03-19T22:11:24.712Z,94239.91
2018-03-19T22:14:28.024Z,94240.41
2018-03-19T22:17:31.608Z,94235.88
2018-03-19T22:24:04.653Z,94243.67
2018-03-19T22:27:07.970Z,94245.23
2018-03-19T22:30:11.278Z,94246.00
2018-03-19T22:33:14.982Z,94248.73
2018-03-19T22:36:19.056Z,94248.73
2018-03-19T22:39:22.516Z,94244.58
2018-03-19T22:42:25.965Z,94241.70
2018-03-19T22:45:29.270Z,94243.92
2018-03-19T22:48:32.570Z,94244.45
2018-03-19T22:51:35.913Z,94241.59
2018-03-19T22:54:40.017Z,94245.36
2018-03-19T22:57:44.098Z,94251.98
2018-03-19T23:00:47.392Z,94246.91
2018-03-19T23:03:51.368Z,94249.78
2018-03-19T23:06:54.661Z,94254.06
2018-03-19T23:09:57.995Z,94245.75
2018-03-19T23:13:01.300Z,94246.02
2018-03-19T23:16:04.626Z,94243.80
2018-03-19T23:19:07.943Z,94247.19
2018-03-19T23:22:12.014Z,94245.11
2018-03-19T23:25:15.296Z,94245.75
2018-03-19T23:28:18.573Z,94249.11
2018-03-19T23:31:21.877Z,94246.41
2018-03-19T23:34:25.231Z,94241.08
2018-03-19T23:37:28.533Z,94241.58
2018-03-19T23:40:32.220Z,94243.65
2018-03-19T23:43:37.546Z,94246.77
2018-03-19T23:46:40.845Z,94241.19
2018-03-19T23:49:44.278Z,94242.36
2018-03-19T23:52:47.535Z,94241.69
2018-03-19T23:55:50.856Z,94243.14
2018-03-19T23:58:54.161Z,94241.33
